Skip to main content

NOAA/GLERL Met Station at Chicago, IL

Previous 5 days (top of hour only)
See also Previous 3 Hours (2 minute increments)
Jump down to Data
Switch to [English][Metric]
Zoom: Click and drag, Pan: shift-click and drag, Unzoom: double-click, Unzoom All




Note: Speed = mean wind during 2-minute period at top of hour,
Gust = max wind during 2-minute period at top of hour,
Peak = max wind during entire hour.
• See also 5-day windrose plot


NOAA/GLERL Met Station at Chicago, IL

Previous 5 days (top of hour only)
See also Previous 3 Hours (2 minute increments)
Jump up to Graphs
Switch to [English][Metric]
                  Wind  Wind  Wind   Air   Dew   Rel
                   Spd   Gst   Dir  Temp    Pt   Hum
YYYY-MM-DD   CDT   kts   kts   deg     F     F     %
2021-10-23 00:00 -99.0 -99.0   -99   0.0   0.0   0.0
2021-10-22 20:00   4.9   6.2   308  53.1  34.2  48.4
2021-10-22 19:00   7.4   8.2   325  53.1  33.8  47.6
2021-10-22 18:00   6.2   8.0   356  52.3  36.6  54.7
2021-10-22 17:00   5.6   6.6   359  52.3  36.0  53.4
2021-10-22 16:00   7.2   8.2   348  52.9  34.2  48.7
2021-10-22 15:00  10.5  11.7   326  52.2  33.7  49.0
2021-10-22 14:00  10.1  13.0   302  51.8  32.8  47.9
2021-10-22 13:00  12.6  13.6   304  51.4  32.9  48.7
2021-10-22 12:00   6.4   7.8   305  49.6  33.5  53.5
2021-10-22 11:00   5.8   7.2   297  49.3  35.2  57.9
2021-10-22 10:00  10.5  12.6   309  48.4  34.5  58.4
2021-10-22 09:00  12.1  13.0   321  47.5  36.4  65.0
2021-10-22 08:00  11.1  12.1   309  48.0  38.1  68.2
2021-10-22 07:00  10.9  12.4   312  47.7  38.1  69.2
2021-10-22 06:00  12.1  13.6   306  47.5  38.9  71.8
2021-10-22 05:00  11.3  12.2   297  48.0  39.5  72.0
2021-10-22 04:00  12.4  14.2   302  49.3  40.7  72.0
2021-10-22 03:00   9.9  12.1   309  49.3  41.7  74.8
2021-10-22 02:00  10.9  12.2   312  49.6  42.8  77.0
2021-10-22 01:00  11.1  12.1   290  49.6  42.0  74.7
2021-10-22 00:00  10.3  11.9   360  51.4  39.0  62.1
2021-10-21 23:00  15.9  17.3   340  52.0  43.3  72.0
2021-10-21 22:00  15.6  18.3   341  52.5  43.1  70.1
2021-10-21 21:00  17.1  21.4   320  50.4  48.9  94.8
2021-10-21 20:00  14.0  15.7   318  52.3  48.2  85.7
2021-10-21 19:00  15.7  18.3   328  53.2  49.1  85.7
2021-10-21 18:00  17.1  19.2   343  54.0  49.2  83.6
2021-10-21 17:00  15.9  17.9   316  54.3  49.3  82.9
2021-10-21 16:00  16.7  19.1   300  53.8  47.8  79.8
2021-10-21 15:00  20.4  22.4   275  51.4  47.9  87.7
2021-10-21 14:00  25.3  28.6   263  50.4  46.5  86.4
2021-10-21 13:00  19.2  22.9   270  50.5  46.4  85.4
2021-10-21 12:00  25.3  27.8   262  49.8  45.2  83.9
2021-10-21 11:00  20.4  23.9   263  49.6  44.9  83.6
2021-10-21 10:00  25.3  28.0   270  52.5  46.1  78.6
2021-10-21 09:00  20.4  22.9   252  52.7  48.5  85.3
2021-10-21 08:00  15.0  19.1   245  54.0  47.5  78.6
2021-10-21 07:00  18.9  22.6   230  54.5  47.4  76.8
2021-10-21 06:00  16.5  19.8   239  55.0  47.7  76.1
2021-10-21 05:00  12.4  14.2   248  56.8  49.4  75.8
2021-10-21 04:00  16.3  18.9   247  59.7  53.2  78.9
2021-10-21 03:00  12.8  14.2   264  63.1  57.1  80.3
2021-10-21 02:00  17.3  19.4   251  66.0  58.2  75.6
2021-10-21 01:00  15.4  19.1   212  66.4  57.9  73.7
2021-10-21 00:00  16.5  17.7   204  66.7  56.5  69.3
2021-10-20 23:00  21.0  24.3   205  67.8  55.7  64.7
2021-10-20 22:00  20.4  22.6   201  68.4  54.3  60.4
2021-10-20 21:00  20.2  22.7   190  67.8  53.5  59.8
2021-10-20 20:00  19.4  20.4   186  68.2  53.1  58.1
2021-10-20 19:00  14.2  15.2   193  70.0  51.5  51.3
2021-10-20 18:00  12.1  13.6   210  71.6  50.7  47.2
2021-10-20 17:00  13.4  14.6   193  71.1  51.1  48.7
2021-10-20 16:00  13.6  14.6   192  69.6  52.9  54.8
2021-10-20 15:00  14.0  14.6   179  68.7  53.4  57.6
2021-10-20 14:00  19.8  20.8   181  68.2  52.1  55.9
2021-10-20 13:00  11.7  13.6   157  66.0  55.2  67.6
2021-10-20 12:00  10.5  11.7   165  64.9  53.6  66.3
2021-10-20 11:00   8.9   9.3   189  63.7  50.1  60.8
2021-10-20 10:00  13.4  14.6   196  61.2  48.5  62.7
2021-10-20 09:00  14.2  15.6   203  59.2  48.3  66.9
2021-10-20 08:00  13.6  14.8   191  58.1  48.7  70.7
2021-10-20 07:00  12.6  14.0   188  58.1  48.1  69.1
2021-10-20 06:00  16.3  18.3   198  58.8  48.3  67.8
2021-10-20 05:00  19.1  21.8   209  58.8  47.9  66.6
2021-10-20 04:00  18.9  21.0   204  58.8  47.4  65.5
2021-10-20 03:00  18.9  21.4   207  59.4  47.3  64.0
2021-10-20 02:00  21.6  24.3   212  60.8  46.2  58.3
2021-10-20 01:00  23.3  26.8   212  61.5  45.2  54.7
2021-10-20 00:00  19.1  21.2   216  61.9  45.8  55.1
2021-10-19 23:00  16.3  17.9   209  62.8  47.2  56.4
2021-10-19 22:00  14.0  15.2   201  63.7  46.1  52.4
2021-10-19 21:00  15.0  16.5   200  64.8  46.9  52.0
2021-10-19 20:00  12.1  13.2   192  65.1  47.5  52.4
2021-10-19 19:00  14.8  16.1   207  66.9  46.3  47.0
2021-10-19 18:00  18.5  21.6   204  68.2  45.5  43.6
2021-10-19 17:00  14.6  15.9   200  69.6  45.1  40.8
2021-10-19 16:00  11.1  12.1   198  69.6  47.9  45.5
2021-10-19 15:00  13.2  14.4   187  69.8  45.3  40.9
2021-10-19 14:00  14.8  16.7   207  69.4  46.6  43.5
2021-10-19 13:00  11.3  12.6   192  68.4  50.3  51.9
2021-10-19 12:00   8.9   9.5   169  65.3  53.7  65.7
2021-10-19 11:00   9.5  10.3   190  64.0  49.2  58.0
2021-10-19 10:00   7.2   8.0   212  61.7  49.6  64.0
2021-10-19 09:00  13.0  14.2   246  60.3  47.9  63.4
2021-10-19 08:00  10.9  12.1   199  59.2  49.7  70.5
2021-10-19 07:00  12.8  14.8   235  61.3  47.5  59.9
2021-10-19 06:00  13.8  17.1   239  61.7  48.2  60.8
2021-10-19 05:00  18.3  22.2   233  62.6  46.1  54.3
2021-10-19 04:00  21.2  26.2   235  63.9  46.3  52.4
2021-10-19 03:00  17.5  21.8   215  62.2  47.5  58.2
2021-10-19 02:00  18.9  20.4   213  62.2  48.4  60.0
2021-10-19 01:00  18.1  20.2   207  63.9  47.5  54.8
2021-10-19 00:00  13.2  14.4   198  64.0  46.8  53.1
2021-10-18 23:00  11.1  11.3   193  64.6  45.2  49.0
2021-10-18 22:00   8.7   9.1   175  65.1  55.6  71.0
2021-10-18 21:00   9.1  10.9   154  65.5  56.7  72.8
2021-10-18 20:00   5.4   6.2   163  68.7  41.1  36.2
2021-10-18 19:00   6.8   6.8   199  69.4  41.1  35.3